Simara — MBEO4 — position and weather

sailwx.info

Track history (hours):
 
Tides and Currents Weather Stations Pressure Air Temp Water Temp Dewpoint Dewpoint Depression Visibility Wind Speed Wind Dir Waves Ship Positions

Simara

Last reported at 2017-Oct-24 15:35 UTC. Time now 2017-Dec-11 19:16 UTC.
Position N 37°02' W 008°13'.
Warning: this ship's position is 48 days out of date.

Length 12 m.

Type: Sailing vessel. MMSI: 232008639.

Date/timePositionNaut miles runAvg speedWind from/ knotsBaromVisibWave heightAir tempDewpointWater temp
2017-Oct-24 15:35N 37°02' W 008°13'1 6.5
2017-Oct-24 15:30N 37°02' W 008°14'3 6.4
2017-Oct-24 15:00N 37°03' W 008°18'2 4.2
2017-Oct-24 14:30N 37°05' W 008°20'2 4.3
2017-Oct-24 14:00N 37°04' W 008°22'3 5.2
2017-Oct-24 13:30N 37°02' W 008°24'2 5.0
2017-Oct-24 13:00N 37°00' W 008°27'3 5.6
2017-Oct-24 12:30N 37°03' W 008°28'3 5.2
2017-Oct-24 12:00N 37°05' W 008°29'3 5.8
2017-Oct-24 11:30N 37°03' W 008°32'3 5.0
2017-Oct-24 11:00N 37°02' W 008°34'3 5.1
2017-Oct-24 10:30N 37°04' W 008°36'3 5.1
2017-Oct-24 10:00N 37°06' W 008°37'1 2.6
2017-Oct-24 09:30N 37°06' W 008°39'2 3.2
2017-Oct-24 08:59N 37°07' W 008°41'  
Track history (hours):
 
Tides and Currents Weather Stations Pressure Air Temp Water Temp Dewpoint Dewpoint Depression Visibility Wind Speed Wind Dir Waves Ship Positions

Simara

Last reported at 2017-Oct-24 15:35 UTC. Time now 2017-Dec-11 19:16 UTC.
Position N 37°02' W 008°13'.
Warning: this ship's position is 48 days out of date.

Length 12 m.

Type: Sailing vessel. MMSI: 232008639.

Date/timePositionNaut miles runAvg speedWind from/ knotsBaromVisibWave heightAir tempDewpointWater temp
2017-Oct-24 15:35N 37°02' W 008°13'1 6.5
2017-Oct-24 15:30N 37°02' W 008°14'3 6.4
2017-Oct-24 15:00N 37°03' W 008°18'2 4.2
2017-Oct-24 14:30N 37°05' W 008°20'2 4.3
2017-Oct-24 14:00N 37°04' W 008°22'3 5.2
2017-Oct-24 13:30N 37°02' W 008°24'2 5.0
2017-Oct-24 13:00N 37°00' W 008°27'3 5.6
2017-Oct-24 12:30N 37°03' W 008°28'3 5.2
2017-Oct-24 12:00N 37°05' W 008°29'3 5.8
2017-Oct-24 11:30N 37°03' W 008°32'3 5.0
2017-Oct-24 11:00N 37°02' W 008°34'3 5.1
2017-Oct-24 10:30N 37°04' W 008°36'3 5.1
2017-Oct-24 10:00N 37°06' W 008°37'1 2.6
2017-Oct-24 09:30N 37°06' W 008°39'2 3.2
2017-Oct-24 08:59N 37°07' W 008°41'  

Dump ship's entire track history